Time;durP1;ratioP1;P1;durP2;ratioP2;P2;SDS_P1;SDS_P2;PMS_P1;PMS_P2;Temp;Humidity;BMP_temperature;BMP_pressure;BME280_temperature;BME280_humidity;BME280_pressure;Samples;Min_cycle;Max_cycle;Signal;HPM_P1;HPM_P2
2022/05/22 00:01:34;;;;;;;20.05;9.00;;;10.30;99.90;;;;;;5271894;28;20548;-72
2022/05/22 00:04:05;;;;;;;21.48;8.60;;;10.50;99.90;;;;;;5271896;28;20103;-73
2022/05/22 00:06:36;;;;;;;20.55;8.80;;;10.70;99.90;;;;;;5272169;28;20454;-72
2022/05/22 00:09:07;;;;;;;24.25;9.07;;;9.90;99.90;;;;;;5272032;28;20108;-72
2022/05/22 00:11:38;;;;;;;20.92;9.30;;;9.50;99.90;;;;;;5271932;28;20040;-72
2022/05/22 00:14:12;;;;;;;19.02;8.88;;;9.40;99.90;;;;;;5271742;28;20035;-72
2022/05/22 00:16:46;;;;;;;23.38;9.65;;;9.90;99.90;;;;;;5271588;28;20026;-71
2022/05/22 00:19:24;;;;;;;23.00;9.63;;;9.40;99.90;;;;;;5271785;28;20066;-73
2022/05/22 00:21:56;;;;;;;24.33;8.73;;;9.20;99.90;;;;;;5271616;28;20020;-72
2022/05/22 00:24:29;;;;;;;22.63;9.75;;;9.10;99.90;;;;;;5271386;28;20020;-72
2022/05/22 00:27:02;;;;;;;24.73;10.80;;;9.30;99.90;;;;;;5271514;28;20048;-71
2022/05/22 00:29:33;;;;;;;23.80;9.63;;;9.50;99.90;;;;;;5271318;28;20119;-72
2022/05/22 00:32:04;;;;;;;23.75;9.60;;;9.00;99.90;;;;;;5271087;28;20434;-71
2022/05/22 00:34:36;;;;;;;22.08;9.25;;;9.30;99.90;;;;;;5271349;28;20024;-71
2022/05/22 00:37:07;;;;;;;26.67;9.73;;;9.70;99.90;;;;;;5271395;28;20016;-71
2022/05/22 00:39:38;;;;;;;22.15;9.05;;;8.70;99.90;;;;;;5271255;28;20050;-73
2022/05/22 00:42:18;;;;;;;25.48;9.48;;;9.20;99.90;;;;;;5270562;28;20036;-73
2022/05/22 00:44:48;;;;;;;26.58;10.02;;;8.80;99.90;;;;;;5264640;28;20119;-71
2022/05/22 00:47:19;;;;;;;23.83;9.60;;;8.80;99.90;;;;;;5249901;28;20131;-71
2022/05/22 00:49:53;;;;;;;25.75;9.85;;;8.60;99.90;;;;;;5250210;28;20074;-72
2022/05/22 00:52:34;;;;;;;25.88;10.13;;;8.90;99.90;;;;;;5250052;28;20189;-71
2022/05/22 00:55:30;;;;;;;22.65;10.40;;;9.30;99.90;;;;;;5250116;28;20067;-72
2022/05/22 00:58:09;;;;;;;26.63;10.13;;;8.50;99.90;;;;;;5249947;28;20043;-72
2022/05/22 01:00:41;;;;;;;26.83;10.68;;;9.30;99.90;;;;;;5250041;28;20531;-72
2022/05/22 01:03:27;;;;;;;23.08;10.02;;;9.80;99.90;;;;;;5249869;28;20492;-71
2022/05/22 01:06:04;;;;;;;25.35;10.88;;;9.90;99.90;;;;;;5249804;28;20150;-71
2022/05/22 01:08:37;;;;;;;29.85;10.68;;;10.10;99.90;;;;;;5249925;28;20097;-71
2022/05/22 01:11:15;;;;;;;25.80;9.55;;;10.10;99.90;;;;;;5249649;28;20036;-71
2022/05/22 01:13:55;;;;;;;25.70;10.60;;;10.10;99.90;;;;;;5249675;28;20464;-72
2022/05/22 01:16:26;;;;;;;;;;;9.00;99.90;;;;;;5249508;28;20021;-71
2022/05/22 01:18:57;;;;;;;23.23;9.77;;;9.30;99.90;;;;;;5249714;28;19905;-72
2022/05/22 01:21:31;;;;;;;34.28;11.38;;;9.10;99.90;;;;;;5249649;28;20028;-72
2022/05/22 01:24:02;;;;;;;37.13;14.43;;;9.70;99.90;;;;;;5249393;28;20396;-72
2022/05/22 01:26:34;;;;;;;25.25;9.52;;;10.00;99.90;;;;;;5249492;28;20048;-72
2022/05/22 01:29:05;;;;;;;27.25;11.25;;;9.30;99.90;;;;;;5249031;28;20051;-71
2022/05/22 01:31:35;;;;;;;21.88;10.30;;;9.60;99.90;;;;;;5249230;28;20058;-71
2022/05/22 01:34:06;;;;;;;27.58;11.52;;;8.50;99.90;;;;;;5248524;28;20020;-71
2022/05/22 01:36:38;;;;;;;39.63;14.63;;;9.30;99.90;;;;;;5249101;28;20025;-72
2022/05/22 01:39:09;;;;;;;30.92;11.27;;;9.80;99.90;;;;;;5248528;28;20051;-72
2022/05/22 01:41:40;;;;;;;27.90;11.20;;;10.10;99.90;;;;;;5248979;28;20337;-71
2022/05/22 01:44:11;;;;;;;24.58;10.32;;;9.70;99.90;;;;;;5249097;28;20107;-71
2022/05/22 01:46:42;;;;;;;27.83;11.07;;;8.90;99.90;;;;;;5248915;28;20025;-72
2022/05/22 01:49:13;;;;;;;34.50;12.38;;;9.30;99.90;;;;;;5249057;28;20029;-71
2022/05/22 01:51:43;;;;;;;24.80;10.68;;;9.60;99.90;;;;;;5248676;28;20492;-72
2022/05/22 01:54:14;;;;;;;23.17;10.45;;;9.30;99.90;;;;;;5249037;28;20404;-72
2022/05/22 01:56:45;;;;;;;28.40;11.88;;;9.40;99.90;;;;;;5248817;28;20120;-72
2022/05/22 01:59:16;;;;;;;27.45;10.40;;;9.50;99.90;;;;;;5248574;28;20029;-72
2022/05/22 02:01:46;;;;;;;27.20;11.63;;;9.10;99.90;;;;;;5248480;28;20066;-73
2022/05/22 02:04:17;;;;;;;32.13;13.65;;;9.60;99.90;;;;;;5248816;28;20025;-72
2022/05/22 02:09:37;;;;;;;29.67;12.55;;;9.40;99.90;;;;;;5248909;28;20077;-71
2022/05/22 02:12:08;;;;;;;34.35;13.65;;;9.60;99.90;;;;;;5248525;28;20041;-71
2022/05/22 02:14:39;;;;;;;35.22;13.90;;;9.60;99.90;;;;;;5248686;28;20025;-72
2022/05/22 02:17:10;;;;;;;31.92;13.43;;;9.80;99.90;;;;;;5248253;28;20032;-72
2022/05/22 02:19:41;;;;;;;29.60;12.98;;;9.60;99.90;;;;;;5262566;28;20395;-71
2022/05/22 02:22:12;;;;;;;28.50;12.05;;;8.90;99.90;;;;;;5251501;28;20031;-71
2022/05/22 02:24:42;;;;;;;38.92;15.13;;;9.40;99.90;;;;;;5248417;28;20028;-72
2022/05/22 02:27:13;;;;;;;36.88;14.40;;;9.60;99.90;;;;;;5248419;28;20021;-72
2022/05/22 02:29:44;;;;;;;29.58;11.43;;;9.30;99.90;;;;;;5262464;28;20349;-72
2022/05/22 02:32:15;;;;;;;29.05;11.63;;;8.70;99.90;;;;;;5269080;28;20494;-73
2022/05/22 02:34:48;;;;;;;26.65;12.55;;;8.80;99.90;;;;;;5268930;28;20101;-72
2022/05/22 02:37:19;;;;;;;28.00;12.27;;;8.80;99.90;;;;;;5268097;28;20530;-72
2022/05/22 02:39:50;;;;;;;30.17;12.18;;;8.60;99.90;;;;;;5248352;28;20119;-73
2022/05/22 02:42:20;;;;;;;31.88;12.60;;;8.60;99.90;;;;;;5248157;28;20047;-72
2022/05/22 02:44:51;;;;;;;32.28;13.00;;;8.30;99.90;;;;;;5248264;28;20020;-72
2022/05/22 02:47:22;;;;;;;31.92;12.38;;;8.70;99.90;;;;;;5248017;28;20028;-72
2022/05/22 02:49:53;;;;;;;29.15;12.27;;;8.50;99.90;;;;;;5248193;28;20031;-72
2022/05/22 02:52:23;;;;;;;26.52;12.23;;;8.70;99.90;;;;;;5248112;28;20381;-71
2022/05/22 02:54:54;;;;;;;34.17;13.02;;;8.60;99.90;;;;;;5248117;28;20024;-71
2022/05/22 02:57:25;;;;;;;32.03;14.52;;;8.30;99.90;;;;;;5248100;28;20090;-71
2022/05/22 02:59:56;;;;;;;35.97;14.35;;;8.20;99.90;;;;;;5247915;28;20025;-72
2022/05/22 03:02:31;;;;;;;32.22;13.85;;;8.60;99.90;;;;;;5248286;28;20060;-74
2022/05/22 03:05:07;;;;;;;29.67;14.60;;;8.80;99.90;;;;;;5249615;28;20021;-74
2022/05/22 03:07:41;;;;;;;36.80;15.48;;;8.40;99.90;;;;;;5257866;28;20016;-73
2022/05/22 03:10:17;;;;;;;32.63;14.23;;;8.50;99.90;;;;;;5273720;28;20051;-73
2022/05/22 03:12:48;;;;;;;33.30;14.88;;;9.00;99.90;;;;;;5272995;28;20048;-71
2022/05/22 03:15:19;;;;;;;33.78;14.38;;;9.00;99.90;;;;;;5273111;28;20375;-72
2022/05/22 03:17:50;;;;;;;39.00;14.63;;;8.90;99.90;;;;;;5268010;28;20067;-71
2022/05/22 03:20:20;;;;;;;36.22;15.48;;;8.90;99.90;;;;;;5263003;28;20023;-71
2022/05/22 03:22:51;;;;;;;39.85;16.80;;;8.80;99.90;;;;;;5265754;28;20052;-71
2022/05/22 03:25:22;;;;;;;38.38;15.93;;;8.90;99.90;;;;;;5262671;28;20426;-73
2022/05/22 03:27:53;;;;;;;42.95;15.52;;;8.90;99.90;;;;;;5257200;28;20029;-73
2022/05/22 03:30:23;;;;;;;35.00;16.23;;;9.00;99.90;;;;;;5267347;28;20078;-73
2022/05/22 03:32:54;;;;;;;42.70;17.33;;;9.30;99.90;;;;;;5251685;28;20078;-71
2022/05/22 03:35:25;;;;;;;34.13;14.70;;;9.30;99.90;;;;;;5271184;28;20391;-72
2022/05/22 03:37:56;;;;;;;38.22;14.98;;;9.00;99.90;;;;;;5270686;28;20047;-72
2022/05/22 03:40:27;;;;;;;35.83;15.02;;;9.50;99.90;;;;;;5251011;28;20038;-72
2022/05/22 03:42:59;;;;;;;37.55;15.25;;;9.60;99.90;;;;;;5251450;28;20049;-71
2022/05/22 03:45:30;;;;;;;39.03;15.10;;;9.90;99.90;;;;;;5256831;28;20032;-72
2022/05/22 03:48:01;;;;;;;32.25;13.90;;;10.20;99.90;;;;;;5272325;28;20370;-71
2022/05/22 03:50:32;;;;;;;32.70;13.30;;;10.90;99.90;;;;;;5272326;28;20028;-72
2022/05/22 03:53:03;;;;;;;38.40;15.82;;;10.70;99.90;;;;;;5265685;28;20585;-71
2022/05/22 03:55:34;;;;;;;33.67;14.07;;;10.50;99.90;;;;;;5251210;28;20464;-71
2022/05/22 03:58:05;;;;;;;34.53;14.57;;;11.10;99.90;;;;;;5268114;28;20103;-73
2022/05/22 04:00:36;;;;;;;30.85;11.70;;;11.40;99.90;;;;;;5265490;28;20035;-73
2022/05/22 04:03:07;;;;;;;26.80;11.88;;;11.40;99.90;;;;;;5254771;28;20925;-73
2022/05/22 04:05:38;;;;;;;35.50;12.50;;;11.40;99.90;;;;;;5257159;28;20353;-72
2022/05/22 04:08:09;;;;;;;26.20;11.95;;;11.70;99.90;;;;;;5260271;28;20488;-73
2022/05/22 04:10:40;;;;;;;30.63;12.65;;;11.70;99.90;;;;;;5268563;28;20039;-72
2022/05/22 04:13:11;;;;;;;35.72;13.50;;;12.10;99.90;;;;;;5271909;28;20020;-73
2022/05/22 04:15:41;;;;;;;31.73;13.23;;;12.30;99.90;;;;;;5271880;28;20360;-72
2022/05/22 04:18:13;;;;;;;26.40;12.27;;;12.40;99.90;;;;;;5270637;28;20161;-72
2022/05/22 04:20:44;;;;;;;31.70;12.32;;;13.00;99.90;;;;;;5271749;28;20102;-72
2022/05/22 04:26:04;;;;;;;30.02;12.95;;;13.10;99.90;;;;;;5272050;28;20051;-72
2022/05/22 04:28:35;;;;;;;30.80;12.10;;;13.10;99.90;;;;;;5271220;28;20024;-72
2022/05/22 04:31:06;;;;;;;36.83;13.25;;;12.80;99.90;;;;;;5270535;28;20514;-73
2022/05/22 04:33:37;;;;;;;29.90;11.73;;;12.90;99.90;;;;;;5271725;28;20080;-73
2022/05/22 04:36:08;;;;;;;32.67;13.85;;;13.70;99.90;;;;;;5271528;28;20012;-73
2022/05/22 04:38:38;;;;;;;31.40;11.52;;;13.90;99.90;;;;;;5271370;28;20035;-73
2022/05/22 04:41:09;;;;;;;29.25;11.70;;;13.60;99.90;;;;;;5271298;28;20097;-73
2022/05/22 04:43:40;;;;;;;25.63;10.15;;;13.70;99.90;;;;;;5271208;28;20024;-72
2022/05/22 04:46:11;;;;;;;21.08;10.10;;;14.40;99.90;;;;;;5271256;28;20016;-72
2022/05/22 04:48:42;;;;;;;27.13;11.57;;;14.30;99.90;;;;;;5271023;28;20032;-72
2022/05/22 04:51:13;;;;;;;30.23;10.90;;;14.50;99.90;;;;;;5271107;28;20036;-74
2022/05/22 04:53:44;;;;;;;21.85;9.55;;;14.70;99.90;;;;;;5271068;28;20077;-73
2022/05/22 04:56:14;;;;;;;25.25;9.52;;;15.10;99.90;;;;;;5271183;28;20451;-73
2022/05/22 04:58:46;;;;;;;22.08;9.52;;;15.40;99.90;;;;;;5271010;28;20112;-74
2022/05/22 05:01:19;;;;;;;21.00;9.45;;;15.40;99.90;;;;;;5271194;28;20032;-73
2022/05/22 05:03:50;;;;;;;22.55;9.90;;;16.20;99.90;;;;;;5259174;28;20029;-74
2022/05/22 05:06:21;;;;;;;22.27;9.02;;;15.80;99.90;;;;;;5249924;28;20033;-72
2022/05/22 05:08:51;;;;;;;19.10;9.15;;;16.30;99.90;;;;;;5249767;28;20033;-73
2022/05/22 05:11:22;;;;;;;18.20;8.60;;;16.30;99.90;;;;;;5249965;28;20476;-72
2022/05/22 05:13:53;;;;;;;17.13;7.57;;;16.20;99.90;;;;;;5249690;28;20036;-72
2022/05/22 05:16:24;;;;;;;22.27;7.78;;;16.50;99.90;;;;;;5249542;28;20029;-72
2022/05/22 05:18:55;;;;;;;17.70;7.88;;;17.30;99.90;;;;;;5249530;28;20445;-72
2022/05/22 05:21:26;;;;;;;12.85;6.43;;;17.00;99.90;;;;;;5249430;28;20100;-72
2022/05/22 05:23:57;;;;;;;13.13;5.65;;;17.00;99.90;;;;;;5249324;28;20043;-73
2022/05/22 05:26:28;;;;;;;15.93;6.15;;;17.10;99.90;;;;;;5249352;28;20039;-74
2022/05/22 05:28:58;;;;;;;12.88;5.93;;;17.80;99.90;;;;;;5248494;28;20040;-73
2022/05/22 05:31:29;;;;;;;12.70;5.43;;;18.30;99.90;;;;;;5249409;28;20036;-73
2022/05/22 05:34:00;;;;;;;15.45;5.95;;;18.40;99.90;;;;;;5249252;28;20155;-73
2022/05/22 05:36:31;;;;;;;13.52;6.40;;;18.60;99.90;;;;;;5249254;28;20103;-74
2022/05/22 05:39:02;;;;;;;13.82;7.07;;;18.90;99.90;;;;;;5249302;28;20024;-73
2022/05/22 05:41:35;;;;;;;15.60;7.03;;;19.10;99.90;;;;;;5248974;28;20020;-72
2022/05/22 05:44:07;;;;;;;15.93;6.65;;;19.00;99.90;;;;;;5249122;28;20381;-74
2022/05/22 05:46:38;;;;;;;15.48;6.68;;;19.70;99.90;;;;;;5249118;28;20487;-74
2022/05/22 05:49:12;;;;;;;15.73;7.68;;;20.10;99.90;;;;;;5249060;28;20017;-74
2022/05/22 05:51:42;;;;;;;16.00;7.78;;;20.20;99.90;;;;;;5248942;28;20041;-73
2022/05/22 05:54:13;;;;;;;17.17;7.97;;;19.80;99.90;;;;;;5248768;28;20028;-74
2022/05/22 05:56:44;;;;;;;17.80;8.18;;;19.90;99.90;;;;;;5248509;28;20029;-74
2022/05/22 05:59:15;;;;;;;17.52;7.70;;;20.70;99.90;;;;;;5236805;28;20086;-74
2022/05/22 06:01:46;;;;;;;16.70;7.28;;;20.70;99.90;;;;;;5246830;28;20446;-74
2022/05/22 06:04:17;;;;;;;13.50;6.93;;;20.90;99.90;;;;;;5248138;28;20029;-73
2022/05/22 06:06:48;;;;;;;17.02;7.55;;;21.00;99.90;;;;;;5247429;28;20111;-73
2022/05/22 06:09:18;;;;;;;11.32;5.55;;;21.20;99.90;;;;;;5248674;28;20032;-74
2022/05/22 06:11:49;;;;;;;12.63;5.22;;;21.10;99.90;;;;;;5248536;28;20087;-73
2022/05/22 06:14:20;;;;;;;12.45;4.95;;;21.20;99.90;;;;;;5248536;28;20028;-75
2022/05/22 06:16:51;;;;;;;7.68;2.75;;;21.90;99.90;;;;;;5248425;28;20028;-73
2022/05/22 06:22:13;;;;;;;;;;;21.90;99.90;;;;;;5249058;28;20521;-74
2022/05/22 06:24:44;;;;;;;11.32;2.70;;;22.00;99.90;;;;;;5248491;28;19911;-73
2022/05/22 06:27:15;;;;;;;6.25;2.60;;;22.10;99.90;;;;;;5241950;28;20032;-73
2022/05/22 06:29:46;;;;;;;7.93;3.20;;;22.20;99.90;;;;;;5248271;28;20037;-74
2022/05/22 06:32:19;;;;;;;5.63;2.70;;;22.30;99.90;;;;;;5246925;28;20040;-73
2022/05/22 06:34:50;;;;;;;8.07;3.35;;;22.30;99.90;;;;;;5248831;28;20507;-73
2022/05/22 06:37:22;;;;;;;6.88;3.00;;;22.30;99.90;;;;;;5248196;28;20020;-73
2022/05/22 06:39:54;;;;;;;6.07;3.42;;;22.30;99.90;;;;;;5247566;28;20146;-73
2022/05/22 06:42:30;;;;;;;7.60;3.70;;;22.40;99.90;;;;;;5248678;28;20048;-74
2022/05/22 06:45:22;;;;;;;5.95;3.63;;;22.70;99.90;;;;;;5248126;28;20032;-73
2022/05/22 06:47:53;;;;;;;8.43;4.20;;;22.90;99.90;;;;;;5247289;28;20353;-73
2022/05/22 06:50:24;;;;;;;6.65;4.47;;;22.70;99.90;;;;;;5248021;28;20107;-73
2022/05/22 06:52:55;;;;;;;12.88;4.13;;;22.70;99.90;;;;;;5248475;28;20067;-73
2022/05/22 06:55:26;;;;;;;7.05;3.92;;;22.90;99.90;;;;;;5248042;28;20048;-73
2022/05/22 06:57:57;;;;;;;9.32;4.68;;;23.00;99.90;;;;;;5248116;28;20103;-74
2022/05/22 07:00:30;;;;;;;7.60;4.50;;;23.10;99.90;;;;;;5250603;28;20031;-73
2022/05/22 07:03:00;;;;;;;6.18;3.97;;;23.10;99.90;;;;;;5248047;28;20033;-73
2022/05/22 07:05:31;;;;;;;6.70;3.80;;;23.20;99.90;;;;;;5248315;28;20021;-73
2022/05/22 07:08:02;;;;;;;6.32;3.50;;;23.10;99.90;;;;;;5247988;28;20020;-73
2022/05/22 07:13:22;;;;;;;8.02;3.70;;;23.40;99.90;;;;;;5268839;28;20383;-74
2022/05/22 07:16:01;;;;;;;7.72;3.40;;;23.70;99.90;;;;;;5269256;28;20028;-73
2022/05/22 07:18:32;;;;;;;10.90;3.90;;;24.00;99.90;;;;;;5268851;28;20055;-73
2022/05/22 07:21:03;;;;;;;7.30;3.10;;;23.50;99.90;;;;;;5268829;28;20443;-73
2022/05/22 07:23:34;;;;;;;6.80;2.90;;;23.60;99.90;;;;;;5269034;28;20024;-73
2022/05/22 07:26:05;;;;;;;6.93;2.83;;;23.90;99.90;;;;;;5268691;28;20020;-73
2022/05/22 07:28:36;;;;;;;5.35;3.00;;;23.40;99.90;;;;;;5268480;28;20032;-73
2022/05/22 07:31:16;;;;;;;9.02;2.67;;;23.80;99.90;;;;;;5268379;28;20125;-73
2022/05/22 07:33:47;;;;;;;7.82;2.30;;;24.20;98.80;;;;;;5269262;28;20030;-73
2022/05/22 07:36:19;;;;;;;5.93;2.35;;;24.10;99.90;;;;;;5259136;28;20020;-73
2022/05/22 07:38:50;;;;;;;3.95;2.25;;;24.50;99.90;;;;;;5248024;28;20028;-73
2022/05/22 07:41:21;;;;;;;4.95;2.15;;;24.20;98.30;;;;;;5247715;28;20111;-74
2022/05/22 07:43:52;;;;;;;2.53;2.20;;;24.20;99.90;;;;;;5247732;28;20090;-74
2022/05/22 07:46:24;;;;;;;4.93;2.10;;;24.50;99.90;;;;;;5247520;28;20016;-74
2022/05/22 07:48:54;;;;;;;6.38;2.58;;;24.70;98.80;;;;;;5247630;28;20471;-73
2022/05/22 07:51:26;;;;;;;7.43;2.17;;;24.80;99.50;;;;;;5248890;28;20119;-73
2022/05/22 07:53:57;;;;;;;6.72;1.83;;;24.80;98.30;;;;;;5251832;28;20506;-73
2022/05/22 07:56:29;;;;;;;4.70;1.58;;;24.80;94.30;;;;;;5251405;28;20028;-73
2022/05/22 07:59:00;;;;;;;3.05;1.50;;;24.70;94.20;;;;;;5251587;28;20480;-73
2022/05/22 08:01:32;;;;;;;4.78;1.80;;;24.50;95.10;;;;;;5251855;28;20070;-74
2022/05/22 08:04:03;;;;;;;7.70;2.03;;;25.00;95.90;;;;;;5251095;28;20028;-72
2022/05/22 08:06:34;;;;;;;3.92;1.80;;;25.30;96.00;;;;;;5251574;28;20043;-73
2022/05/22 08:09:05;;;;;;;3.78;1.63;;;25.40;91.50;;;;;;5251224;28;20113;-73
2022/05/22 08:11:35;;;;;;;4.22;1.75;;;24.80;91.80;;;;;;5250854;28;20032;-74
2022/05/22 08:14:06;;;;;;;4.40;1.70;;;25.40;93.50;;;;;;5249923;28;20481;-73
2022/05/22 08:16:37;;;;;;;5.45;2.00;;;25.90;95.30;;;;;;5250884;28;20012;-74
2022/05/22 08:19:08;;;;;;;3.35;1.70;;;26.20;97.40;;;;;;5250927;28;20036;-73
2022/05/22 08:21:39;;;;;;;5.47;1.80;;;26.50;96.50;;;;;;5251228;28;20068;-74
2022/05/22 08:24:10;;;;;;;6.47;2.00;;;26.40;99.90;;;;;;5250926;28;20479;-74
2022/05/22 08:26:41;;;;;;;7.97;1.88;;;26.60;99.90;;;;;;5250896;28;20019;-77
2022/05/22 08:29:12;;;;;;;7.25;1.70;;;26.80;99.90;;;;;;5250991;28;20048;-82
2022/05/22 08:31:43;;;;;;;4.28;1.92;;;26.80;99.90;;;;;;5250777;28;20571;-82
2022/05/22 08:34:14;;;;;;;3.83;1.88;;;26.80;99.90;;;;;;5251182;28;20024;-77
2022/05/22 08:36:45;;;;;;;3.55;1.60;;;26.50;99.90;;;;;;5251053;28;20024;-80
2022/05/22 08:39:16;;;;;;;4.25;1.90;;;26.30;99.90;;;;;;5250813;28;20039;-80
2022/05/22 08:41:49;;;;;;;7.15;2.10;;;26.10;99.90;;;;;;5250493;28;20464;-76
2022/05/22 08:44:31;;;;;;;4.28;1.90;;;25.90;99.90;;;;;;5250844;28;20024;-76
2022/05/22 08:47:31;;;;;;;3.13;2.03;;;25.30;99.90;;;;;;5250867;28;20040;-76
2022/05/22 08:50:06;;;;;;;5.38;1.60;;;25.00;99.90;;;;;;5250730;28;20023;-81
2022/05/22 08:52:46;;;;;;;5.10;2.40;;;24.70;99.90;;;;;;5250544;28;20033;-76
2022/05/22 08:58:56;;;;;;;7.75;2.00;;;24.20;99.90;;;;;;5250396;28;20131;-76
2022/05/22 09:01:52;;;;;;;5.38;2.00;;;24.40;99.90;;;;;;5250686;28;20045;-76
2022/05/22 09:04:31;;;;;;;4.68;1.80;;;23.90;99.90;;;;;;5249790;28;20023;-76
2022/05/22 09:07:05;;;;;;;6.05;2.00;;;23.60;99.90;;;;;;5250740;28;20480;-77
2022/05/22 09:09:39;;;;;;;6.40;2.08;;;23.50;99.90;;;;;;5250024;28;20386;-76
2022/05/22 09:12:33;;;;;;;5.53;1.95;;;23.20;99.90;;;;;;5265509;28;20039;-80
2022/05/22 09:15:19;;;;;;;8.02;2.22;;;22.90;99.90;;;;;;5250536;28;20346;-78
2022/05/22 09:18:00;;;;;;;9.85;2.20;;;23.00;99.90;;;;;;5243769;28;20482;-78
2022/05/22 09:20:43;;;;;;;9.77;2.28;;;22.90;99.90;;;;;;5229121;28;20111;-80
2022/05/22 09:23:17;;;;;;;6.30;1.80;;;23.70;99.90;;;;;;5229113;28;20087;-76
2022/05/22 09:26:10;;;;;;;7.95;2.20;;;23.30;99.90;;;;;;5229400;28;20017;-78
2022/05/22 09:29:09;;;;;;;5.88;2.72;;;22.90;99.90;;;;;;5229069;28;20460;-83
2022/05/22 09:32:01;;;;;;;4.82;2.30;;;22.70;99.90;;;;;;5228723;28;20083;-79
2022/05/22 09:34:37;;;;;;;4.43;1.98;;;22.50;99.90;;;;;;5233278;28;20024;-78
2022/05/22 09:37:14;;;;;;;5.10;2.22;;;22.60;99.90;;;;;;5229087;28;20393;-79
2022/05/22 09:40:16;;;;;;;5.05;2.25;;;23.00;99.90;;;;;;5228824;28;20021;-83
2022/05/22 09:43:08;;;;;;;5.28;2.17;;;23.60;99.90;;;;;;5231710;28;20409;-77
2022/05/22 09:46:13;;;;;;;4.38;1.98;;;23.60;99.90;;;;;;5240205;28;20036;-79
2022/05/22 09:49:17;;;;;;;8.18;2.53;;;23.90;99.90;;;;;;5246093;28;20103;-79
2022/05/22 09:52:30;;;;;;;8.32;2.13;;;23.60;99.90;;;;;;5244747;28;20428;-79
2022/05/22 09:55:42;;;;;;;5.40;2.03;;;23.10;99.90;;;;;;5245961;28;20020;-79
2022/05/22 09:58:40;;;;;;;7.45;1.85;;;22.60;99.90;;;;;;5244037;28;20027;-79
2022/05/22 10:01:34;;;;;;;4.95;2.60;;;22.20;99.90;;;;;;5243665;28;20094;-79
2022/05/22 10:04:20;;;;;;;8.90;2.40;;;22.30;99.90;;;;;;5245012;28;20031;-79
2022/05/22 10:07:06;;;;;;;8.55;2.30;;;22.30;99.90;;;;;;5246360;28;20039;-79
2022/05/22 10:10:02;;;;;;;7.60;2.35;;;22.10;99.90;;;;;;5246029;28;20468;-79
2022/05/22 10:13:13;;;;;;;4.43;1.95;;;21.90;99.90;;;;;;5245577;28;20054;-78
2022/05/22 10:16:06;;;;;;;5.25;2.20;;;21.90;99.90;;;;;;5239622;28;20423;-78
2022/05/22 10:19:01;;;;;;;6.85;2.50;;;22.00;99.90;;;;;;5244217;28;20043;-78
2022/05/22 10:21:48;;;;;;;9.98;2.30;;;22.30;99.90;;;;;;5244160;28;20028;-78
2022/05/22 10:24:49;;;;;;;7.25;2.42;;;22.80;99.90;;;;;;5244499;28;20025;-78
2022/05/22 10:28:00;;;;;;;8.82;2.25;;;23.10;99.90;;;;;;5245532;28;20107;-77
2022/05/22 10:30:40;;;;;;;5.82;1.90;;;23.60;99.90;;;;;;5245110;28;20064;-78
2022/05/22 10:33:25;;;;;;;8.40;2.60;;;23.50;99.90;;;;;;5242780;28;20037;-79
2022/05/22 10:36:10;;;;;;;7.03;2.05;;;24.40;99.90;;;;;;5245550;28;20123;-78
2022/05/22 10:38:47;;;;;;;14.55;2.63;;;23.90;99.90;;;;;;5245681;28;20062;-79
2022/05/22 10:44:22;;;;;;;8.70;1.98;;;23.60;99.90;;;;;;5244348;28;20135;-80
2022/05/22 10:46:57;;;;;;;10.10;2.45;;;24.30;99.90;;;;;;5245432;28;20086;-78
2022/05/22 10:49:45;;;;;;;4.43;1.88;;;23.80;99.90;;;;;;5245535;28;20036;-79
2022/05/22 10:52:25;;;;;;;12.43;2.10;;;24.40;99.90;;;;;;5243702;28;20032;-79
2022/05/22 10:54:56;;;;;;;12.57;2.30;;;24.00;99.90;;;;;;5245664;28;20025;-80
2022/05/22 10:57:30;;;;;;;7.32;1.90;;;23.40;99.90;;;;;;5246247;28;20131;-77
2022/05/22 11:00:13;;;;;;;17.45;2.10;;;23.70;99.90;;;;;;5245327;28;20083;-78
2022/05/22 11:02:44;;;;;;;7.80;2.05;;;23.70;99.90;;;;;;5244257;28;20128;-77
2022/05/22 11:05:25;;;;;;;6.88;1.98;;;23.80;99.90;;;;;;5245961;28;20099;-78
2022/05/22 11:07:58;;;;;;;5.97;1.92;;;23.50;99.90;;;;;;5246940;28;20480;-79
2022/05/22 11:10:37;;;;;;;12.75;2.50;;;23.50;99.90;;;;;;5246356;28;20021;-80
2022/05/22 11:13:10;;;;;;;7.68;2.47;;;23.60;99.90;;;;;;5248193;28;20045;-79
2022/05/22 11:15:42;;;;;;;10.63;2.75;;;24.30;99.90;;;;;;5248722;28;20032;-79
2022/05/22 11:18:25;;;;;;;11.65;2.28;;;24.10;99.90;;;;;;5248239;28;20117;-81
2022/05/22 11:21:02;;;;;;;8.73;2.08;;;23.50;99.90;;;;;;5248126;28;20052;-80
2022/05/22 11:24:06;;;;;;;12.13;2.60;;;24.00;99.90;;;;;;5248163;28;20380;-80
2022/05/22 11:26:52;;;;;;;11.60;1.92;;;23.60;99.90;;;;;;5250459;28;20028;-81
2022/05/22 11:29:29;;;;;;;8.52;1.88;;;24.00;99.90;;;;;;5252163;28;20049;-81
2022/05/22 11:32:07;;;;;;;10.50;1.92;;;23.50;99.90;;;;;;5252153;28;20029;-81
2022/05/22 11:34:53;;;;;;;7.47;2.30;;;23.60;99.90;;;;;;5252169;28;20434;-80
2022/05/22 11:37:45;;;;;;;5.63;1.45;;;23.60;99.90;;;;;;5252665;28;20025;-83
2022/05/22 11:41:02;;;;;;;9.10;2.25;;;24.10;99.90;;;;;;5252315;28;20025;-82
2022/05/22 11:43:54;;;;;;;9.90;1.80;;;23.80;99.90;;;;;;5251626;28;20112;-83
2022/05/22 11:46:56;;;;;;;9.68;2.10;;;23.80;99.90;;;;;;5250543;28;20437;-78
2022/05/22 11:49:51;;;;;;;7.78;1.60;;;24.00;99.90;;;;;;5250803;28;20122;-82
2022/05/22 11:55:29;;;;;;;11.38;2.35;;;24.20;99.90;;;;;;5252331;28;20035;-82
2022/05/22 11:58:32;;;;;;;8.25;1.50;;;24.50;99.90;;;;;;5243355;28;20114;-83
2022/05/22 12:01:17;;;;;;;7.25;1.75;;;24.10;99.90;;;;;;5254726;28;20384;-82
2022/05/22 12:04:24;;;;;;;12.68;2.67;;;23.70;99.90;;;;;;5234372;28;20433;-79
2022/05/22 12:07:30;;;;;;;10.02;2.17;;;23.50;99.90;;;;;;5227901;28;20027;-79
2022/05/22 12:10:07;;;;;;;7.40;1.80;;;23.70;99.90;;;;;;5229658;28;20025;-83
2022/05/22 12:13:03;;;;;;;8.75;1.48;;;24.60;99.90;;;;;;5229274;28;20137;-80
2022/05/22 12:15:51;;;;;;;11.88;1.67;;;24.40;99.90;;;;;;5229021;28;20029;-82
2022/05/22 12:18:59;;;;;;;6.40;1.70;;;24.30;99.90;;;;;;5228990;28;20524;-78
2022/05/22 12:21:55;;;;;;;5.55;1.75;;;24.00;99.90;;;;;;5229809;28;20025;-79
2022/05/22 12:24:26;;;;;;;8.70;1.83;;;23.70;99.90;;;;;;5219202;28;20033;-78
2022/05/22 12:26:59;;;;;;;9.07;2.20;;;23.20;99.90;;;;;;5229934;28;20021;-79
2022/05/22 12:29:42;;;;;;;8.25;1.80;;;23.00;99.90;;;;;;5229497;28;20052;-82
2022/05/22 12:32:22;;;;;;;12.15;1.92;;;22.90;99.90;;;;;;5229589;28;20052;-82
2022/05/22 12:34:57;;;;;;;6.03;1.73;;;22.40;99.90;;;;;;5229715;28;20021;-79
2022/05/22 12:37:38;;;;;;;8.23;1.50;;;22.20;99.90;;;;;;5228605;28;20550;-78
2022/05/22 12:40:27;;;;;;;8.70;1.65;;;22.20;99.90;;;;;;5229625;28;20119;-78
2022/05/22 12:43:01;;;;;;;4.67;1.40;;;22.10;99.90;;;;;;5229388;28;20028;-81
2022/05/22 12:45:32;;;;;;;5.65;2.20;;;21.80;99.90;;;;;;5228173;28;20532;-83
2022/05/22 12:48:37;;;;;;;8.68;2.53;;;21.60;99.90;;;;;;5229457;28;20017;-79
2022/05/22 12:51:10;;;;;;;16.10;1.90;;;22.00;99.90;;;;;;5229344;28;20082;-78
2022/05/22 12:53:47;;;;;;;11.35;2.15;;;22.20;99.90;;;;;;5229277;28;20047;-83
2022/05/22 12:56:19;;;;;;;7.40;1.20;;;22.20;99.90;;;;;;5229268;28;20477;-79
2022/05/22 12:58:57;;;;;;;8.80;1.85;;;21.70;99.90;;;;;;5229145;28;20496;-79
2022/05/22 13:01:31;;;;;;;5.50;1.65;;;22.20;99.90;;;;;;5229104;28;20024;-82
2022/05/22 13:04:15;;;;;;;13.88;2.10;;;21.70;99.90;;;;;;5229155;28;20477;-83
2022/05/22 13:07:00;;;;;;;9.25;1.55;;;22.00;99.90;;;;;;5229169;28;20025;-79
2022/05/22 13:09:31;;;;;;;8.45;1.88;;;21.80;99.90;;;;;;5229111;28;20487;-82
2022/05/22 13:12:19;;;;;;;7.45;1.85;;;21.60;99.90;;;;;;5227563;28;20061;-83
2022/05/22 13:14:54;;;;;;;13.75;1.85;;;21.60;99.90;;;;;;5228945;28;20029;-82
2022/05/22 13:17:51;;;;;;;10.57;2.17;;;21.30;99.90;;;;;;5228901;28;20098;-80
2022/05/22 13:20:29;;;;;;;10.10;1.63;;;21.10;99.90;;;;;;5228889;28;20547;-83
2022/05/22 13:23:22;;;;;;;9.23;1.80;;;21.00;99.90;;;;;;5243999;28;20029;-83
2022/05/22 13:25:57;;;;;;;9.15;2.00;;;20.90;99.90;;;;;;5228791;28;20104;-79
2022/05/22 13:28:33;;;;;;;9.05;1.83;;;21.10;99.90;;;;;;5227327;28;20036;-79
2022/05/22 13:31:07;;;;;;;8.77;2.20;;;21.20;99.90;;;;;;5228291;28;20045;-83
2022/05/22 13:33:48;;;;;;;5.88;2.13;;;21.20;99.90;;;;;;5228517;28;20085;-79
2022/05/22 13:36:28;;;;;;;16.23;2.83;;;20.90;99.90;;;;;;5227271;28;20373;-79
2022/05/22 13:39:00;;;;;;;12.73;1.92;;;20.80;99.90;;;;;;5228528;28;20032;-79
2022/05/22 13:41:51;;;;;;;7.18;1.90;;;20.70;99.90;;;;;;5228321;28;20029;-78
2022/05/22 13:45:00;;;;;;;9.88;2.08;;;20.60;99.90;;;;;;5228399;28;20032;-82
2022/05/22 13:48:07;;;;;;;10.57;2.17;;;20.70;99.90;;;;;;5227387;28;20068;-78
2022/05/22 13:53:46;;;;;;;9.10;2.37;;;21.00;99.90;;;;;;5228478;28;20048;-84